Time;durP1;ratioP1;P1;durP2;ratioP2;P2;SDS_P1;SDS_P2;PMS_P1;PMS_P2;Temp;Humidity;BMP_temperature;BMP_pressure;BME280_temperature;BME280_humidity;BME280_pressure;Samples;Min_cycle;Max_cycle;Signal;HPM_P1;HPM_P2
2022/01/28 00:00:37;;;;;;;19.15;3.70;;;4.30;99.90;;;;;;5014972;28;20042;-82
2022/01/28 00:03:08;;;;;;;21.25;3.58;;;4.30;99.90;;;;;;5030592;28;20531;-82
2022/01/28 00:05:36;;;;;;;23.70;3.72;;;4.20;99.90;;;;;;5034522;28;20052;-82
2022/01/28 00:08:04;;;;;;;21.30;3.72;;;4.20;99.90;;;;;;5036387;28;20048;-82
2022/01/28 00:10:31;;;;;;;20.98;3.50;;;4.20;99.90;;;;;;5038217;28;20041;-82
2022/01/28 00:39:46;;;;;;;22.42;3.80;;;4.30;99.90;;;;;;5001807;28;20052;-82
2022/01/28 00:42:11;;;;;;;23.77;3.80;;;4.50;99.90;;;;;;5017779;28;20568;-82
2022/01/28 00:44:37;;;;;;;18.88;3.53;;;4.40;99.90;;;;;;5001564;28;20045;-82
2022/01/28 00:47:04;;;;;;;21.10;3.70;;;4.40;99.90;;;;;;5000937;28;20049;-82
2022/01/28 00:49:29;;;;;;;22.48;3.95;;;4.40;99.90;;;;;;5017666;28;20038;-82
2022/01/28 00:51:55;;;;;;;19.88;3.55;;;4.30;99.90;;;;;;5001459;28;20037;-82
2022/01/28 00:54:21;;;;;;;20.17;3.72;;;4.40;99.90;;;;;;5001436;28;20049;-82
2022/01/28 00:56:48;;;;;;;19.70;3.58;;;4.40;99.90;;;;;;5017620;28;20049;-82
2022/01/28 00:59:14;;;;;;;20.90;3.58;;;4.40;99.90;;;;;;5001153;28;20144;-82
2022/01/28 01:01:40;;;;;;;22.05;3.35;;;4.40;99.90;;;;;;5017265;28;20124;-82
2022/01/28 01:04:06;;;;;;;19.40;3.28;;;4.40;99.90;;;;;;5000568;28;20103;-82
2022/01/28 01:06:33;;;;;;;17.70;3.13;;;4.50;99.90;;;;;;5017157;28;20037;-82
2022/01/28 01:08:59;;;;;;;14.57;3.03;;;4.30;99.90;;;;;;5000631;28;20054;-82
2022/01/28 01:11:26;;;;;;;18.98;3.22;;;4.40;99.90;;;;;;5017128;28;20045;-82
2022/01/28 01:13:53;;;;;;;20.33;3.10;;;5.10;99.90;;;;;;4984619;28;20045;-82
2022/01/28 01:16:35;;;;;;;17.58;2.97;;;4.40;99.90;;;;;;5016110;28;20124;-82
2022/01/28 01:21:38;;;;;;;17.88;3.40;;;4.80;99.90;;;;;;5021010;28;20413;-82
2022/01/28 01:24:07;;;;;;;20.27;3.20;;;4.40;99.90;;;;;;5020471;28;20033;-82
2022/01/28 01:26:35;;;;;;;17.33;2.67;;;4.40;99.90;;;;;;5036886;28;20033;-82
2022/01/28 01:29:02;;;;;;;16.83;3.10;;;4.40;99.90;;;;;;5020335;28;20045;-82
2022/01/28 01:31:28;;;;;;;19.77;3.05;;;4.30;99.90;;;;;;5020261;28;20045;-82
2022/01/28 01:34:09;;;;;;;14.45;2.85;;;4.60;99.90;;;;;;5019515;28;20045;-82
2022/01/28 01:36:35;;;;;;;15.18;2.80;;;4.40;99.90;;;;;;5020189;28;20139;-82
2022/01/28 01:39:02;;;;;;;17.63;3.05;;;4.50;99.90;;;;;;5020052;28;20163;-82
2022/01/28 01:41:34;;;;;;;19.45;3.30;;;4.50;99.90;;;;;;5020065;28;20036;-82
2022/01/28 01:44:05;;;;;;;15.60;2.67;;;4.50;99.90;;;;;;5020349;28;20043;-82
2022/01/28 01:52:05;;;;;;;21.55;3.60;;;4.70;99.90;;;;;;5022369;28;20077;-82
2022/01/28 01:54:43;;;;;;;21.73;3.40;;;4.70;99.90;;;;;;5021120;28;20102;-82
2022/01/28 01:57:12;;;;;;;17.52;3.15;;;4.70;99.90;;;;;;5019271;28;20454;-82
2022/01/28 01:59:39;;;;;;;15.55;3.08;;;4.70;99.90;;;;;;5019804;28;20045;-82
2022/01/28 02:02:06;;;;;;;18.10;3.28;;;4.50;99.90;;;;;;5019072;28;20040;-82
2022/01/28 02:04:31;;;;;;;16.95;3.00;;;4.50;99.90;;;;;;5035905;28;20127;-82
2022/01/28 02:06:59;;;;;;;19.63;3.10;;;4.60;99.90;;;;;;5002938;28;20131;-82
2022/01/28 02:09:25;;;;;;;20.30;3.58;;;4.50;99.90;;;;;;5019280;28;20088;-82
2022/01/28 02:11:51;;;;;;;19.40;3.70;;;4.50;99.90;;;;;;5036041;28;20119;-82
2022/01/28 02:14:17;;;;;;;21.27;4.00;;;4.60;99.90;;;;;;5019621;28;20055;-82
2022/01/28 02:16:43;;;;;;;18.38;3.58;;;4.60;99.90;;;;;;5035755;28;20037;-82
2022/01/28 02:19:09;;;;;;;20.33;3.53;;;4.70;99.90;;;;;;5002112;28;20102;-82
2022/01/28 02:21:46;;;;;;;24.73;3.80;;;5.00;99.90;;;;;;5019312;28;20495;-82
2022/01/28 02:24:16;;;;;;;21.63;3.85;;;4.80;99.90;;;;;;5035795;28;20507;-82
2022/01/28 02:26:42;;;;;;;21.23;3.63;;;4.60;99.90;;;;;;5035690;28;20041;-82
2022/01/28 02:29:13;;;;;;;17.55;3.20;;;4.50;99.90;;;;;;5018981;28;20040;-82
2022/01/28 02:31:40;;;;;;;19.50;3.65;;;4.50;99.90;;;;;;5019350;28;20079;-82
2022/01/28 02:34:09;;;;;;;19.60;3.72;;;4.50;99.90;;;;;;5034674;28;20099;-82
2022/01/28 02:36:35;;;;;;;21.85;4.28;;;5.00;99.90;;;;;;5018928;28;20093;-82
2022/01/28 02:39:01;;;;;;;23.80;4.18;;;4.90;99.90;;;;;;5035229;28;20111;-82
2022/01/28 02:41:32;;;;;;;24.27;4.60;;;4.50;99.90;;;;;;5018916;28;20420;-82
2022/01/28 02:44:09;;;;;;;20.10;3.75;;;4.50;99.90;;;;;;5035443;28;20428;-82
2022/01/28 02:46:38;;;;;;;25.77;4.18;;;4.60;99.90;;;;;;5035449;28;20040;-82
2022/01/28 02:49:09;;;;;;;20.17;3.95;;;4.50;99.90;;;;;;5034867;28;20493;-82
2022/01/28 02:51:36;;;;;;;22.80;4.35;;;4.60;99.90;;;;;;5019035;28;20091;-82
2022/01/28 02:54:13;;;;;;;24.38;4.00;;;4.60;99.90;;;;;;5018850;28;20041;-82
2022/01/28 02:56:46;;;;;;;23.67;3.78;;;4.70;99.90;;;;;;5003963;28;20044;-82
2022/01/28 02:59:12;;;;;;;20.50;4.25;;;4.70;99.90;;;;;;5003474;28;20090;-82
2022/01/28 03:01:37;;;;;;;23.70;3.95;;;4.70;99.90;;;;;;5035188;28;20096;-82
2022/01/28 03:04:05;;;;;;;23.05;4.20;;;4.80;99.90;;;;;;5018446;28;20033;-82
2022/01/28 03:06:31;;;;;;;23.45;4.05;;;4.70;99.90;;;;;;5035016;28;20074;-82
2022/01/28 03:09:06;;;;;;;30.02;4.75;;;4.70;99.90;;;;;;5031692;28;20151;-82
2022/01/28 03:16:53;;;;;;;24.30;4.13;;;4.70;99.90;;;;;;5016159;28;20038;-82
2022/01/28 03:19:21;;;;;;;25.52;4.47;;;4.90;99.90;;;;;;5000708;28;20052;-82
2022/01/28 03:21:55;;;;;;;20.77;3.72;;;4.70;99.90;;;;;;5031698;28;20072;-82
2022/01/28 03:24:25;;;;;;;24.33;4.18;;;4.70;99.90;;;;;;5000511;28;20042;-82
2022/01/28 03:26:56;;;;;;;23.17;3.97;;;4.70;99.90;;;;;;4999615;28;20195;-82
2022/01/28 03:29:22;;;;;;;26.17;3.88;;;4.70;99.90;;;;;;5016281;28;20485;-82
2022/01/28 03:31:48;;;;;;;19.30;3.80;;;4.90;99.90;;;;;;5031734;28;20394;-82
2022/01/28 03:34:14;;;;;;;21.73;3.97;;;4.70;99.90;;;;;;5014397;28;20117;-82
2022/01/28 03:36:40;;;;;;;26.25;4.03;;;4.70;99.90;;;;;;5015228;28;20128;-82
2022/01/28 03:39:08;;;;;;;21.88;4.43;;;4.80;99.90;;;;;;5015657;28;20481;-82
2022/01/28 03:41:33;;;;;;;25.23;4.15;;;4.80;99.90;;;;;;5019645;28;20084;-82
2022/01/28 03:44:00;;;;;;;22.73;4.15;;;4.80;99.90;;;;;;5018878;28;20068;-82
2022/01/28 03:46:28;;;;;;;25.42;4.47;;;4.80;99.90;;;;;;5019906;28;20453;-82
2022/01/28 03:48:54;;;;;;;23.13;4.10;;;4.70;99.90;;;;;;4982365;28;20084;-82
2022/01/28 03:51:21;;;;;;;25.00;4.72;;;4.70;99.90;;;;;;5015464;28;20485;-82
2022/01/28 03:53:47;;;;;;;25.38;4.22;;;5.40;99.90;;;;;;5015367;28;20052;-82
2022/01/28 03:56:13;;;;;;;24.30;4.38;;;4.70;99.90;;;;;;4983049;28;20038;-82
2022/01/28 03:58:39;;;;;;;26.52;4.20;;;4.70;99.90;;;;;;5015714;28;20034;-82
2022/01/28 04:01:11;;;;;;;22.58;4.20;;;4.70;99.90;;;;;;4983082;28;20038;-82
2022/01/28 04:03:42;;;;;;;21.70;4.05;;;4.80;99.90;;;;;;4982920;28;20081;-82
2022/01/28 04:11:51;;;;;;;25.52;4.50;;;4.90;99.90;;;;;;5001282;28;20104;-82
2022/01/28 04:19:42;;;;;;;19.92;4.30;;;4.80;99.90;;;;;;4987667;28;20045;-82
2022/01/28 04:22:08;;;;;;;28.05;4.90;;;4.80;99.90;;;;;;4982381;28;20042;-82
2022/01/28 04:24:33;;;;;;;22.70;4.30;;;5.10;99.90;;;;;;5031832;28;20398;-82
2022/01/28 04:26:59;;;;;;;26.40;4.40;;;5.30;99.90;;;;;;4966176;28;20089;-82
2022/01/28 04:29:25;;;;;;;25.08;4.50;;;4.80;99.90;;;;;;5014860;28;20068;-82
2022/01/28 04:31:50;;;;;;;24.00;4.25;;;4.70;99.90;;;;;;5015027;28;20049;-82
2022/01/28 04:34:19;;;;;;;24.27;4.28;;;4.80;99.90;;;;;;4981450;28;20073;-82
2022/01/28 04:36:55;;;;;;;22.83;4.32;;;4.80;99.90;;;;;;4983063;28;20049;-82
2022/01/28 04:39:37;;;;;;;21.38;4.13;;;4.80;99.90;;;;;;5019105;28;20363;-82
2022/01/28 04:44:47;;;;;;;24.55;4.20;;;4.70;99.90;;;;;;5014696;28;20084;-82
2022/01/28 04:47:24;;;;;;;22.15;4.15;;;4.70;99.90;;;;;;4999151;28;20045;-82
2022/01/28 05:00:53;;;;;;;26.33;4.78;;;4.40;99.90;;;;;;5014217;28;20053;-82
2022/01/28 05:09:13;;;;;;;23.60;4.22;;;4.30;99.90;;;;;;5033378;28;20058;-82
2022/01/28 05:27:50;;;;;;;20.13;4.20;;;4.20;99.90;;;;;;5035666;28;20094;-82
2022/01/28 05:30:15;;;;;;;27.27;4.35;;;4.20;99.90;;;;;;5016787;28;20116;-82
2022/01/28 05:32:42;;;;;;;23.08;4.60;;;4.30;99.90;;;;;;5018602;28;20128;-82
2022/01/28 05:35:08;;;;;;;25.85;4.63;;;4.30;99.90;;;;;;5034869;28;20048;-82
2022/01/28 05:37:34;;;;;;;28.70;4.53;;;4.20;99.90;;;;;;5033197;28;20032;-82
2022/01/28 05:40:00;;;;;;;22.15;4.45;;;4.20;99.90;;;;;;5036091;28;20435;-82
2022/01/28 05:42:25;;;;;;;23.75;4.60;;;4.20;99.90;;;;;;5009526;28;20043;-82
2022/01/28 05:44:51;;;;;;;23.20;4.15;;;4.10;99.90;;;;;;5009609;28;20034;-82
2022/01/28 05:47:17;;;;;;;26.02;4.75;;;4.10;99.90;;;;;;5034013;28;20462;-82
2022/01/28 05:49:44;;;;;;;25.85;4.72;;;4.10;99.90;;;;;;5033187;28;20041;-82
2022/01/28 05:52:10;;;;;;;29.13;4.65;;;4.20;99.90;;;;;;5010331;28;20125;-82
2022/01/28 05:54:36;;;;;;;28.92;4.78;;;4.00;99.90;;;;;;4999640;28;20120;-82
2022/01/28 05:57:02;;;;;;;26.02;4.43;;;3.90;99.90;;;;;;5027723;28;20032;-82
2022/01/28 05:59:28;;;;;;;21.88;4.55;;;3.90;99.90;;;;;;5026020;28;20044;-82
2022/01/28 06:01:54;;;;;;;22.85;4.30;;;4.60;99.90;;;;;;5018117;28;20036;-82
2022/01/28 06:04:22;;;;;;;21.20;4.22;;;3.80;99.90;;;;;;5015251;28;20041;-82
2022/01/28 06:06:48;;;;;;;26.83;4.43;;;3.80;99.90;;;;;;5007636;28;20044;-82
2022/01/28 06:09:14;;;;;;;25.48;4.50;;;3.80;99.90;;;;;;5010177;28;20045;-82
2022/01/28 06:11:40;;;;;;;26.30;4.53;;;3.90;99.90;;;;;;5018352;28;20033;-82
2022/01/28 06:14:06;;;;;;;28.25;4.68;;;3.70;99.90;;;;;;5015035;28;20037;-82
2022/01/28 06:16:32;;;;;;;23.88;4.85;;;3.70;99.90;;;;;;5017660;28;20033;-82
2022/01/28 06:18:58;;;;;;;24.02;4.43;;;3.80;99.90;;;;;;5030911;28;20505;-82
2022/01/28 06:21:24;;;;;;;25.55;4.28;;;3.90;99.90;;;;;;5024150;28;20051;-82
2022/01/28 06:23:52;;;;;;;24.02;4.82;;;4.30;99.90;;;;;;5017209;28;20443;-82
2022/01/28 06:26:18;;;;;;;23.92;4.38;;;3.80;99.90;;;;;;5032423;28;20051;-82
2022/01/28 06:28:44;;;;;;;24.92;4.57;;;4.30;99.90;;;;;;5031574;28;20037;-82
2022/01/28 06:31:10;;;;;;;28.45;5.05;;;4.60;99.90;;;;;;5034803;28;20052;-82
2022/01/28 06:33:36;;;;;;;27.67;4.53;;;3.90;99.90;;;;;;5034517;28;20040;-82
2022/01/28 06:36:03;;;;;;;27.20;4.50;;;4.10;99.90;;;;;;5029091;28;20481;-82
2022/01/28 06:38:29;;;;;;;26.83;4.47;;;4.10;99.90;;;;;;5032936;28;20511;-82
2022/01/28 06:40:55;;;;;;;22.95;4.30;;;4.10;99.90;;;;;;5034069;28;20033;-82
2022/01/28 06:43:21;;;;;;;26.10;4.60;;;4.30;99.90;;;;;;5019127;28;20052;-82
2022/01/28 06:45:47;;;;;;;22.85;4.38;;;4.20;99.90;;;;;;5019351;28;20048;-82
2022/01/28 06:48:15;;;;;;;23.40;4.28;;;4.30;99.90;;;;;;5018363;28;20056;-82
2022/01/28 06:50:42;;;;;;;25.75;4.72;;;4.20;99.90;;;;;;5034901;28;20052;-82
2022/01/28 06:53:09;;;;;;;22.75;4.22;;;4.30;99.90;;;;;;5018339;28;20037;-82
2022/01/28 06:55:36;;;;;;;28.90;7.93;;;4.30;99.90;;;;;;5035254;28;20041;-82
2022/01/28 06:58:03;;;;;;;25.77;4.72;;;4.30;99.90;;;;;;5034945;28;20040;-82
2022/01/28 07:00:34;;;;;;;28.88;7.75;;;4.30;99.90;;;;;;5019290;28;20033;-82
2022/01/28 07:03:00;;;;;;;26.63;6.75;;;4.30;99.90;;;;;;5018370;28;20052;-82
2022/01/28 07:05:25;;;;;;;22.20;4.70;;;4.30;99.90;;;;;;5035579;28;20489;-82
2022/01/28 07:07:51;;;;;;;21.77;4.18;;;4.40;99.90;;;;;;5018834;28;20127;-82
2022/01/28 07:10:17;;;;;;;23.23;4.15;;;4.30;99.90;;;;;;5035146;28;20071;-82
2022/01/28 07:12:42;;;;;;;27.13;5.00;;;4.30;99.90;;;;;;5018434;28;20033;-82
2022/01/28 07:15:09;;;;;;;23.25;4.43;;;4.20;99.90;;;;;;5020683;28;20029;-82
2022/01/28 07:17:34;;;;;;;27.77;4.30;;;4.20;99.90;;;;;;5020734;28;20064;-82
2022/01/28 07:20:00;;;;;;;21.25;4.63;;;4.20;99.90;;;;;;5039294;28;20072;-82
2022/01/28 07:22:26;;;;;;;23.25;4.57;;;4.60;99.90;;;;;;5022412;28;20041;-82
2022/01/28 07:24:51;;;;;;;24.63;5.00;;;4.10;99.90;;;;;;5006630;28;20361;-81
2022/01/28 07:27:19;;;;;;;19.80;4.50;;;4.10;99.90;;;;;;5039174;28;20084;-81
2022/01/28 07:29:50;;;;;;;25.55;5.05;;;4.50;99.90;;;;;;5021873;28;20162;-81
2022/01/28 07:32:17;;;;;;;23.42;4.55;;;4.00;99.90;;;;;;5037753;28;20055;-81
2022/01/28 07:34:43;;;;;;;23.92;4.88;;;3.90;99.90;;;;;;5021984;28;20061;-81
2022/01/28 07:37:09;;;;;;;25.08;4.65;;;3.90;99.90;;;;;;5037081;28;20046;-81
2022/01/28 07:39:35;;;;;;;24.10;4.57;;;3.90;99.90;;;;;;5035001;28;20036;-81
2022/01/28 07:42:00;;;;;;;28.05;4.90;;;4.20;99.90;;;;;;5037708;28;20066;-81
2022/01/28 07:44:26;;;;;;;24.20;4.68;;;3.80;99.90;;;;;;5005644;28;20110;-81
2022/01/28 07:46:52;;;;;;;23.23;4.53;;;3.80;99.90;;;;;;5022340;28;20045;-81
2022/01/28 07:49:18;;;;;;;23.23;4.40;;;3.90;99.90;;;;;;5038769;28;20037;-81
2022/01/28 07:51:43;;;;;;;26.25;4.32;;;3.80;99.90;;;;;;5022100;28;20041;-81
2022/01/28 07:54:09;;;;;;;25.23;4.40;;;3.90;99.90;;;;;;5021713;28;20068;-81
2022/01/28 07:56:35;;;;;;;26.35;4.80;;;3.80;99.90;;;;;;5021585;28;20037;-81
2022/01/28 07:59:02;;;;;;;24.17;4.82;;;3.80;99.90;;;;;;5038023;28;20043;-81
2022/01/28 08:01:28;;;;;;;24.80;4.22;;;3.80;99.90;;;;;;5005736;28;20107;-81
2022/01/28 08:03:53;;;;;;;22.77;4.28;;;3.80;99.90;;;;;;5004824;28;20044;-81
2022/01/28 08:06:19;;;;;;;22.88;4.55;;;3.70;99.90;;;;;;5005198;28;20129;-81
2022/01/28 08:08:45;;;;;;;21.65;4.10;;;3.70;99.90;;;;;;5037871;28;20067;-82
2022/01/28 08:11:11;;;;;;;23.40;4.30;;;3.70;99.90;;;;;;5005588;28;20401;-82
2022/01/28 08:13:37;;;;;;;27.58;4.63;;;4.00;99.90;;;;;;5005639;28;20044;-82
2022/01/28 08:16:03;;;;;;;24.88;4.50;;;3.60;99.90;;;;;;5021703;28;20037;-82
2022/01/28 08:18:29;;;;;;;23.63;4.05;;;3.60;99.90;;;;;;5004238;28;20115;-82
2022/01/28 08:20:55;;;;;;;27.48;4.75;;;3.60;99.90;;;;;;5018148;28;20132;-82
2022/01/28 08:23:20;;;;;;;24.55;4.72;;;3.60;99.90;;;;;;5014166;28;20052;-82
2022/01/28 08:25:48;;;;;;;23.20;4.45;;;3.70;99.90;;;;;;5014805;28;20069;-82
2022/01/28 08:28:14;;;;;;;30.05;4.28;;;3.70;99.90;;;;;;5033047;28;20060;-82
2022/01/28 08:30:40;;;;;;;26.40;4.50;;;3.70;99.90;;;;;;5017610;28;20052;-82
2022/01/28 08:33:06;;;;;;;27.42;4.55;;;3.80;99.90;;;;;;5033426;28;20481;-82
2022/01/28 08:35:37;;;;;;;23.60;4.63;;;3.80;99.90;;;;;;5023060;28;20425;-82
2022/01/28 08:38:12;;;;;;;23.40;4.18;;;3.90;99.90;;;;;;5032621;28;20037;-82
2022/01/28 08:40:38;;;;;;;24.55;4.60;;;4.00;99.90;;;;;;5016504;28;20045;-82
2022/01/28 08:43:03;;;;;;;25.73;4.68;;;4.10;99.90;;;;;;5016532;28;20858;-82
2022/01/28 08:45:29;;;;;;;25.17;4.50;;;4.00;99.90;;;;;;5051558;28;20079;-82
2022/01/28 08:47:55;;;;;;;25.17;4.53;;;4.10;99.90;;;;;;5018180;28;20042;-82
2022/01/28 08:50:21;;;;;;;21.38;4.22;;;4.30;99.90;;;;;;5020568;28;20498;-82
2022/01/28 08:52:47;;;;;;;23.13;4.78;;;4.20;99.90;;;;;;5018221;28;20033;-82
2022/01/28 08:55:13;;;;;;;28.33;6.20;;;4.20;99.90;;;;;;5000931;28;20072;-82
2022/01/28 08:57:43;;;;;;;23.08;4.57;;;4.30;99.90;;;;;;5011942;28;20037;-82
2022/01/28 09:00:13;;;;;;;27.30;4.93;;;4.40;99.90;;;;;;5018457;28;20041;-82
2022/01/28 09:02:41;;;;;;;23.67;4.57;;;4.50;99.90;;;;;;5015882;28;20120;-82
2022/01/28 09:05:07;;;;;;;19.88;4.30;;;4.60;99.90;;;;;;5018712;28;20049;-82
2022/01/28 09:07:33;;;;;;;26.52;4.28;;;4.50;99.90;;;;;;5031491;28;20499;-82
2022/01/28 09:10:04;;;;;;;23.90;4.03;;;4.60;99.90;;;;;;5014317;28;20045;-82
2022/01/28 09:12:38;;;;;;;26.90;4.63;;;4.70;99.90;;;;;;5033329;28;20124;-82
2022/01/28 09:15:05;;;;;;;22.10;4.50;;;4.90;99.90;;;;;;5000450;28;20038;-82
2022/01/28 09:17:31;;;;;;;23.38;4.10;;;5.00;99.90;;;;;;5017146;28;20511;-82
2022/01/28 09:19:57;;;;;;;22.33;4.35;;;5.20;99.90;;;;;;5011561;28;20124;-82
2022/01/28 09:22:23;;;;;;;22.17;4.47;;;5.40;99.90;;;;;;5001151;28;20044;-82
2022/01/28 09:24:49;;;;;;;24.52;4.32;;;5.50;99.90;;;;;;5008079;28;20492;-82
2022/01/28 09:27:15;;;;;;;30.63;5.00;;;5.60;99.90;;;;;;5033214;28;20052;-82
2022/01/28 09:29:41;;;;;;;24.95;4.63;;;5.90;99.90;;;;;;5018273;28;20046;-82
2022/01/28 09:32:08;;;;;;;25.38;4.57;;;5.70;99.90;;;;;;5029501;28;20040;-82
2022/01/28 09:34:33;;;;;;;21.48;4.07;;;5.70;99.90;;;;;;5016321;28;20037;-82
2022/01/28 09:36:59;;;;;;;26.60;4.53;;;5.60;99.90;;;;;;4998482;28;20040;-82
2022/01/28 09:39:25;;;;;;;21.42;4.47;;;5.70;99.90;;;;;;5015551;28;20044;-82
2022/01/28 09:41:59;;;;;;;24.42;4.13;;;5.90;99.90;;;;;;5034073;28;20523;-82
2022/01/28 09:44:26;;;;;;;27.77;4.60;;;6.10;99.90;;;;;;5030239;28;20124;-82
2022/01/28 09:46:52;;;;;;;28.13;4.32;;;6.30;99.90;;;;;;5015112;28;20033;-82
2022/01/28 09:49:18;;;;;;;24.55;4.50;;;6.50;99.90;;;;;;5027565;28;20025;-81
2022/01/28 09:51:44;;;;;;;24.38;5.60;;;6.50;99.90;;;;;;4997024;28;20046;-83
2022/01/28 09:54:10;;;;;;;24.85;4.60;;;6.50;99.90;;;;;;5015287;28;20119;-82
2022/01/28 09:56:36;;;;;;;26.13;4.13;;;6.60;99.90;;;;;;5013267;28;20029;-82
2022/01/28 09:59:01;;;;;;;22.10;4.05;;;6.60;99.90;;;;;;5000257;28;20060;-82
2022/01/28 10:01:27;;;;;;;26.20;4.50;;;6.50;99.90;;;;;;5030900;28;20049;-82
2022/01/28 10:04:04;;;;;;;24.58;4.60;;;6.60;99.90;;;;;;5037055;28;20048;-82
2022/01/28 10:06:31;;;;;;;24.40;4.55;;;6.50;99.90;;;;;;5031611;28;20037;-83
2022/01/28 10:08:57;;;;;;;21.92;4.75;;;6.50;99.90;;;;;;5013007;28;20886;-82
2022/01/28 10:11:22;;;;;;;24.88;4.80;;;6.50;99.90;;;;;;4995368;28;20076;-82
2022/01/28 10:13:52;;;;;;;22.27;4.40;;;6.50;99.90;;;;;;4996286;28;20033;-82
2022/01/28 10:16:23;;;;;;;24.05;4.38;;;6.50;99.90;;;;;;5031742;28;20116;-81
2022/01/28 10:18:56;;;;;;;25.23;4.57;;;6.50;99.90;;;;;;5012649;28;20095;-82
2022/01/28 10:21:27;;;;;;;24.13;4.30;;;6.60;99.90;;;;;;5017354;28;20435;-82
2022/01/28 10:24:01;;;;;;;25.38;4.55;;;6.60;99.90;;;;;;5016576;28;20068;-82
2022/01/28 10:26:41;;;;;;;26.10;4.85;;;6.70;99.90;;;;;;5026163;28;20104;-82
2022/01/28 10:29:14;;;;;;;25.08;4.90;;;6.60;99.90;;;;;;5033580;28;20044;-82
2022/01/28 10:31:41;;;;;;;28.98;6.22;;;6.60;99.90;;;;;;5012754;28;20038;-82
2022/01/28 10:34:28;;;;;;;26.58;4.70;;;6.70;99.90;;;;;;5031355;28;20429;-82
2022/01/28 10:37:17;;;;;;;22.95;4.07;;;6.70;99.90;;;;;;5009987;28;20045;-81
2022/01/28 10:40:03;;;;;;;23.33;4.72;;;6.70;99.90;;;;;;5000482;28;20068;-82
2022/01/28 10:42:29;;;;;;;25.33;5.50;;;6.80;99.90;;;;;;5029750;28;20068;-82
2022/01/28 10:45:11;;;;;;;27.85;5.32;;;6.90;99.90;;;;;;5031897;28;20063;-82
2022/01/28 10:47:36;;;;;;;26.30;4.90;;;6.90;99.90;;;;;;5028915;28;20243;-82
2022/01/28 10:50:26;;;;;;;22.77;4.43;;;7.00;99.90;;;;;;5009266;28;20416;-82
2022/01/28 10:52:58;;;;;;;20.58;4.18;;;7.00;99.90;;;;;;5014955;28;20095;-82
2022/01/28 10:55:24;;;;;;;27.42;4.60;;;7.00;99.90;;;;;;5029198;28;20053;-82
2022/01/28 10:58:02;;;;;;;23.10;4.70;;;7.00;99.90;;;;;;5010964;28;20119;-82
2022/01/28 11:00:35;;;;;;;26.10;4.97;;;7.10;99.90;;;;;;5045196;28;20033;-82
2022/01/28 11:03:04;;;;;;;21.73;3.95;;;7.10;99.90;;;;;;5027014;28;20041;-82
2022/01/28 11:05:32;;;;;;;29.45;4.90;;;7.10;99.90;;;;;;5032196;28;20076;-82
2022/01/28 11:07:59;;;;;;;24.63;4.43;;;7.10;99.90;;;;;;5012199;28;20051;-82
2022/01/28 11:10:25;;;;;;;23.77;4.53;;;7.10;99.90;;;;;;5030331;28;20049;-82
2022/01/28 11:12:54;;;;;;;22.77;4.43;;;7.10;99.90;;;;;;4998807;28;20031;-82
2022/01/28 11:15:22;;;;;;;24.75;5.80;;;7.10;99.90;;;;;;5034572;28;20049;-82
2022/01/28 11:17:49;;;;;;;21.60;4.43;;;7.10;99.90;;;;;;5014275;28;20036;-83
2022/01/28 11:20:20;;;;;;;28.80;4.25;;;7.20;99.90;;;;;;5031169;28;22044;-83
2022/01/28 11:22:54;;;;;;;22.13;4.43;;;7.30;99.90;;;;;;5018285;28;20052;-82
2022/01/28 11:25:39;;;;;;;24.73;4.28;;;7.30;99.90;;;;;;5010402;28;20042;-82
2022/01/28 11:28:13;;;;;;;20.65;4.20;;;7.30;99.90;;;;;;5013236;28;20397;-83
2022/01/28 11:30:47;;;;;;;24.65;4.28;;;7.30;99.90;;;;;;4996474;28;20072;-82
2022/01/28 11:33:15;;;;;;;21.90;4.20;;;7.30;99.90;;;;;;5033658;28;20057;-81
2022/01/28 11:35:52;;;;;;;26.73;4.38;;;7.30;99.90;;;;;;5009352;28;20115;-83
2022/01/28 11:38:27;;;;;;;24.85;4.30;;;7.30;99.90;;;;;;5027697;28;20048;-82
2022/01/28 11:40:59;;;;;;;23.48;4.20;;;7.40;99.90;;;;;;5017328;28;20052;-82
2022/01/28 11:43:30;;;;;;;21.25;4.13;;;7.30;99.90;;;;;;5011938;28;20041;-82
2022/01/28 11:46:31;;;;;;;18.67;4.10;;;7.40;99.90;;;;;;5008460;28;20381;-82
2022/01/28 11:49:02;;;;;;;21.25;3.95;;;7.40;99.90;;;;;;5003734;28;20049;-81
2022/01/28 11:51:39;;;;;;;23.65;4.03;;;7.40;99.90;;;;;;5016768;28;20052;-81
2022/01/28 11:54:08;;;;;;;19.67;4.07;;;7.40;99.90;;;;;;5026370;28;20040;-82
2022/01/28 11:57:01;;;;;;;23.63;4.10;;;7.40;99.90;;;;;;5016795;28;20486;-82
2022/01/28 11:59:29;;;;;;;25.45;4.30;;;7.30;99.90;;;;;;5012298;28;20087;-82
2022/01/28 12:01:54;;;;;;;22.48;4.05;;;7.30;99.90;;;;;;5015492;28;20517;-82
2022/01/28 12:04:26;;;;;;;20.42;4.00;;;7.20;99.90;;;;;;5032009;28;20061;-82
2022/01/28 12:06:58;;;;;;;25.90;4.20;;;7.10;99.90;;;;;;5018486;28;20446;-82
2022/01/28 12:09:25;;;;;;;19.60;3.63;;;7.20;99.90;;;;;;5042425;28;20521;-82
2022/01/28 12:11:51;;;;;;;23.45;4.28;;;7.10;99.90;;;;;;5029085;28;20056;-82
2022/01/28 12:14:18;;;;;;;23.38;4.28;;;7.10;99.90;;;;;;5013147;28;20654;-82
2022/01/28 12:16:46;;;;;;;25.95;4.15;;;7.20;99.90;;;;;;5014716;28;20048;-82
2022/01/28 12:19:20;;;;;;;20.65;3.78;;;7.30;99.90;;;;;;5015729;28;20044;-82
2022/01/28 12:22:08;;;;;;;20.88;4.13;;;7.30;99.90;;;;;;5013345;28;20033;-82
2022/01/28 12:24:35;;;;;;;22.98;3.88;;;7.20;99.90;;;;;;5039340;28;20033;-82
2022/01/28 12:27:06;;;;;;;18.42;3.92;;;7.20;99.90;;;;;;5018837;28;20048;-82
2022/01/28 12:29:42;;;;;;;23.67;4.37;;;7.20;99.90;;;;;;5037822;28;20095;-82
2022/01/28 12:32:08;;;;;;;23.63;4.20;;;7.30;99.90;;;;;;5036714;28;20080;-82
2022/01/28 12:34:34;;;;;;;22.42;4.13;;;7.40;99.90;;;;;;5012140;28;20088;-82
2022/01/28 12:37:02;;;;;;;24.85;3.80;;;7.40;99.90;;;;;;4997885;28;20045;-81
2022/01/28 12:39:33;;;;;;;24.17;4.22;;;7.40;99.90;;;;;;5017223;28;20448;-82
2022/01/28 12:42:10;;;;;;;22.58;3.90;;;7.30;99.90;;;;;;5015237;28;20045;-81
2022/01/28 12:44:38;;;;;;;24.25;4.30;;;7.30;99.90;;;;;;5025704;28;20041;-82
2022/01/28 12:47:09;;;;;;;20.08;4.15;;;7.30;99.90;;;;;;5030049;28;20399;-82
2022/01/28 12:49:37;;;;;;;21.13;4.37;;;7.40;99.90;;;;;;5015320;28;20029;-82
2022/01/28 12:52:08;;;;;;;25.17;4.32;;;7.50;99.90;;;;;;5003349;28;20045;-82
2022/01/28 12:54:45;;;;;;;20.38;4.55;;;7.50;99.90;;;;;;5015955;28;20037;-82
2022/01/28 12:57:17;;;;;;;18.80;4.40;;;7.40;99.90;;;;;;5028306;28;20061;-82
2022/01/28 12:59:48;;;;;;;22.88;3.97;;;7.40;99.90;;;;;;5026776;28;20099;-82
2022/01/28 13:02:16;;;;;;;20.38;3.78;;;7.30;99.90;;;;;;5005277;28;20041;-82
2022/01/28 13:10:32;;;;;;;21.40;4.20;;;7.00;99.90;;;;;;5005030;28;20046;-81
2022/01/28 13:13:08;;;;;;;23.92;3.95;;;6.90;99.90;;;;;;5035274;28;20397;-82
2022/01/28 13:15:35;;;;;;;20.23;3.90;;;6.80;99.90;;;;;;5026091;28;20036;-82
2022/01/28 13:18:02;;;;;;;25.02;4.43;;;6.90;99.90;;;;;;5031592;28;20116;-82
2022/01/28 13:20:38;;;;;;;21.20;4.05;;;7.00;99.90;;;;;;5015056;28;20094;-82
2022/01/28 13:23:04;;;;;;;21.25;3.90;;;7.10;99.90;;;;;;5015280;28;20132;-82
2022/01/28 13:25:30;;;;;;;18.77;3.85;;;7.10;99.90;;;;;;5032745;28;20052;-81
2022/01/28 13:28:01;;;;;;;22.55;4.03;;;7.10;99.90;;;;;;5024510;28;20045;-81
2022/01/28 13:30:35;;;;;;;22.23;4.03;;;7.20;99.90;;;;;;5009925;28;20080;-82
2022/01/28 13:33:05;;;;;;;19.33;3.97;;;7.20;99.90;;;;;;5029161;28;20052;-81
2022/01/28 13:35:33;;;;;;;17.80;3.65;;;7.20;99.90;;;;;;5031191;28;20048;-82
2022/01/28 13:38:05;;;;;;;25.23;3.60;;;7.30;99.90;;;;;;5019539;28;20052;-82
2022/01/28 13:40:32;;;;;;;25.75;3.80;;;7.30;99.90;;;;;;5023493;28;20045;-82
2022/01/28 13:43:18;;;;;;;18.75;3.40;;;7.40;99.90;;;;;;5011567;28;20045;-82
2022/01/28 13:46:04;;;;;;;19.90;3.75;;;7.40;99.90;;;;;;5017133;28;20494;-81
2022/01/28 13:48:34;;;;;;;20.58;3.85;;;7.30;99.90;;;;;;5013156;28;20059;-81
2022/01/28 13:51:12;;;;;;;21.17;3.60;;;7.30;99.90;;;;;;5016710;28;20067;-81
2022/01/28 13:56:37;;;;;;;21.25;3.83;;;7.10;99.90;;;;;;5018257;28;20097;-81
2022/01/28 13:59:14;;;;;;;20.02;3.53;;;7.20;99.90;;;;;;5031967;28;20045;-81
2022/01/28 14:01:49;;;;;;;24.10;3.72;;;7.10;99.90;;;;;;5014815;28;20048;-81
2022/01/28 14:04:35;;;;;;;20.15;3.72;;;7.10;99.90;;;;;;5031354;28;20103;-81
2022/01/28 14:07:22;;;;;;;19.85;3.75;;;7.20;99.90;;;;;;5012600;28;20487;-82
2022/01/28 14:09:58;;;;;;;21.10;3.78;;;7.20;99.90;;;;;;5035896;28;20416;-81
2022/01/28 14:18:02;;;;;;;20.23;3.83;;;7.20;99.90;;;;;;5017651;28;20045;-81
2022/01/28 14:20:28;;;;;;;24.20;3.72;;;7.20;99.90;;;;;;5016462;28;20048;-81
2022/01/28 14:22:54;;;;;;;20.42;3.67;;;7.10;99.90;;;;;;5009330;28;20396;-82
2022/01/28 14:25:21;;;;;;;23.13;3.80;;;7.10;99.90;;;;;;4994963;28;20151;-82
2022/01/28 14:28:00;;;;;;;18.45;3.53;;;7.00;99.90;;;;;;5012837;28;20037;-81
2022/01/28 14:30:38;;;;;;;20.17;3.80;;;7.00;99.90;;;;;;5015949;28;20041;-81
2022/01/28 14:33:04;;;;;;;21.02;3.95;;;6.90;99.90;;;;;;5013277;28;20037;-81
2022/01/28 14:35:30;;;;;;;18.85;3.70;;;6.90;99.90;;;;;;5019484;28;20045;-82
2022/01/28 14:37:55;;;;;;;22.27;3.78;;;6.80;99.90;;;;;;5011718;28;20033;-81